Time;durP1;ratioP1;P1;durP2;ratioP2;P2;SDS_P1;SDS_P2;PMS_P1;PMS_P2;Temp;Humidity;BMP_temperature;BMP_pressure;BME280_temperature;BME280_humidity;BME280_pressure;Samples;Min_cycle;Max_cycle;Signal;HPM_P1;HPM_P2
2022/07/03 00:01:44;;;;;;;5.15;1.67;;;25.20;74.60;;;;;;5135440;27;20479;-66
2022/07/03 00:04:10;;;;;;;5.25;2.13;;;25.40;74.40;;;;;;5135940;27;20051;-69
2022/07/03 00:06:35;;;;;;;3.67;1.80;;;25.50;74.70;;;;;;5134986;27;20114;-67
2022/07/03 00:09:03;;;;;;;2.90;1.60;;;25.60;74.90;;;;;;5137841;27;20049;-69
2022/07/03 00:11:29;;;;;;;4.78;1.70;;;25.30;74.90;;;;;;5101187;27;20039;-67
2022/07/03 00:13:54;;;;;;;3.97;1.85;;;25.40;77.80;;;;;;5120075;27;20042;-69
2022/07/03 00:16:20;;;;;;;4.28;1.77;;;25.40;74.70;;;;;;5153410;27;20045;-68
2022/07/03 00:18:46;;;;;;;4.13;1.80;;;25.30;74.50;;;;;;5116522;27;20039;-68
2022/07/03 00:21:12;;;;;;;4.55;1.70;;;25.40;74.80;;;;;;5155767;27;20415;-69
2022/07/03 00:23:41;;;;;;;2.92;1.58;;;25.40;78.30;;;;;;5115802;27;20373;-67
2022/07/03 00:26:07;;;;;;;4.25;2.03;;;25.40;75.20;;;;;;5119362;27;20039;-67
2022/07/03 00:28:33;;;;;;;4.13;1.92;;;25.40;74.70;;;;;;5155595;27;20043;-67
2022/07/03 00:30:59;;;;;;;3.45;1.70;;;25.50;78.00;;;;;;5134185;27;20387;-69
2022/07/03 00:33:26;;;;;;;4.13;1.75;;;25.30;78.40;;;;;;5136536;27;20068;-69
2022/07/03 00:35:52;;;;;;;4.68;1.77;;;25.70;75.30;;;;;;5137014;27;20079;-68
2022/07/03 00:38:18;;;;;;;3.65;1.70;;;25.40;75.10;;;;;;5098226;27;20043;-68
2022/07/03 00:40:44;;;;;;;2.10;1.45;;;25.40;74.90;;;;;;5141726;27;20038;-69
2022/07/03 00:43:09;;;;;;;4.07;1.83;;;25.60;78.30;;;;;;5116946;27;20120;-68
2022/07/03 00:45:35;;;;;;;4.38;1.88;;;25.40;74.80;;;;;;5119162;27;20472;-69
2022/07/03 00:48:01;;;;;;;3.28;1.33;;;25.10;74.80;;;;;;5119278;27;20138;-68
2022/07/03 00:50:34;;;;;;;2.38;1.20;;;25.30;74.80;;;;;;5153492;27;20042;-64
2022/07/03 00:53:00;;;;;;;4.10;1.70;;;25.40;73.80;;;;;;5135558;27;20083;-68
2022/07/03 00:55:26;;;;;;;4.05;1.70;;;25.40;75.20;;;;;;5136169;27;20067;-68
2022/07/03 00:57:52;;;;;;;2.90;1.65;;;25.30;75.00;;;;;;5153872;27;20055;-69
2022/07/03 01:00:18;;;;;;;5.20;1.88;;;25.40;75.00;;;;;;5115375;27;20054;-68
2022/07/03 01:02:43;;;;;;;2.65;1.42;;;25.40;78.50;;;;;;5147710;27;20091;-69
2022/07/03 01:05:21;;;;;;;3.15;1.58;;;25.40;74.90;;;;;;5155365;27;20047;-69
2022/07/03 01:08:26;;;;;;;5.60;1.95;;;25.40;78.40;;;;;;5135545;27;20043;-68
2022/07/03 01:10:59;;;;;;;3.20;1.60;;;25.30;74.30;;;;;;5134994;27;20053;-69
2022/07/03 01:13:56;;;;;;;4.22;1.80;;;25.50;73.90;;;;;;5133963;27;20047;-69
2022/07/03 01:16:50;;;;;;;3.08;1.77;;;25.40;78.40;;;;;;5042730;28;20187;-69
2022/07/03 01:19:41;;;;;;;4.43;1.50;;;25.40;74.10;;;;;;5037949;28;20504;-67
2022/07/03 01:22:37;;;;;;;2.63;1.45;;;25.70;74.70;;;;;;5049947;28;20198;-67
2022/07/03 01:25:21;;;;;;;4.40;1.60;;;25.30;74.40;;;;;;5027305;28;20438;-69
2022/07/03 01:27:58;;;;;;;3.90;1.77;;;25.20;73.80;;;;;;5047074;28;20085;-68
2022/07/03 01:30:28;;;;;;;4.10;1.80;;;25.30;74.10;;;;;;5047942;28;20060;-69
2022/07/03 01:33:06;;;;;;;2.45;1.30;;;25.30;73.80;;;;;;5014622;28;20057;-69
2022/07/03 01:35:40;;;;;;;4.13;1.80;;;25.60;75.70;;;;;;5029773;28;20089;-66
2022/07/03 01:38:10;;;;;;;3.53;1.70;;;25.60;74.00;;;;;;5049746;28;20041;-65
2022/07/03 01:40:38;;;;;;;4.43;1.75;;;25.50;75.60;;;;;;5018123;28;20530;-67
2022/07/03 01:43:05;;;;;;;3.88;2.10;;;25.20;78.40;;;;;;5046669;28;20445;-68
2022/07/03 01:45:33;;;;;;;3.10;1.70;;;25.20;75.40;;;;;;5027776;28;20065;-67
2022/07/03 01:47:58;;;;;;;5.55;2.17;;;25.20;78.60;;;;;;5043286;28;20104;-67
2022/07/03 01:50:24;;;;;;;3.47;1.80;;;25.40;78.70;;;;;;5047972;28;20053;-69
2022/07/03 01:52:50;;;;;;;3.58;1.90;;;25.40;75.20;;;;;;5087528;27;20047;-68
2022/07/03 01:55:16;;;;;;;3.50;2.00;;;25.40;75.20;;;;;;5127965;27;20058;-69
2022/07/03 01:57:43;;;;;;;4.47;2.00;;;25.40;75.60;;;;;;5080005;28;20047;-69
2022/07/03 02:00:11;;;;;;;3.03;1.70;;;25.10;75.40;;;;;;5151209;27;20047;-68
2022/07/03 02:02:48;;;;;;;4.63;1.80;;;25.40;75.30;;;;;;5135760;27;20047;-67
2022/07/03 02:05:32;;;;;;;4.10;2.20;;;25.10;73.90;;;;;;5114901;28;20499;-67
2022/07/03 02:08:00;;;;;;;7.22;2.13;;;25.40;74.30;;;;;;5146037;27;20046;-69
2022/07/03 02:10:29;;;;;;;3.42;1.83;;;25.20;75.50;;;;;;5134617;27;20050;-68
2022/07/03 02:13:02;;;;;;;2.88;1.88;;;25.20;78.30;;;;;;5153153;27;20133;-68
2022/07/03 02:15:32;;;;;;;5.75;2.25;;;25.20;79.10;;;;;;5117780;27;20112;-68
2022/07/03 02:18:00;;;;;;;2.70;1.60;;;25.30;78.80;;;;;;5134807;27;20043;-69
2022/07/03 02:20:25;;;;;;;3.15;1.65;;;25.30;75.60;;;;;;5133986;27;20043;-67
2022/07/03 02:23:00;;;;;;;3.92;2.00;;;25.40;78.60;;;;;;5152854;27;20495;-68
2022/07/03 02:25:30;;;;;;;2.85;1.70;;;25.20;75.90;;;;;;5154071;27;20046;-65
2022/07/03 02:27:56;;;;;;;3.95;1.90;;;25.40;75.70;;;;;;5138249;27;20463;-68
2022/07/03 02:30:23;;;;;;;3.45;1.75;;;25.20;78.70;;;;;;5138913;27;20515;-68
2022/07/03 02:32:52;;;;;;;3.72;1.88;;;25.10;76.10;;;;;;5134667;27;20062;-69
2022/07/03 02:35:25;;;;;;;3.97;2.00;;;25.40;75.60;;;;;;5133283;27;20074;-69
2022/07/03 02:38:19;;;;;;;3.17;1.65;;;25.30;75.90;;;;;;5155609;27;20042;-68
2022/07/03 02:40:56;;;;;;;3.58;1.85;;;25.10;78.50;;;;;;5127773;27;20043;-69
2022/07/03 02:43:38;;;;;;;3.53;1.77;;;25.20;74.10;;;;;;5155356;27;20133;-68
2022/07/03 02:49:14;;;;;;;4.13;1.80;;;24.90;74.60;;;;;;5156553;27;20640;-68
2022/07/03 02:51:41;;;;;;;3.55;1.77;;;25.20;75.90;;;;;;5121386;27;20042;-68
2022/07/03 02:54:14;;;;;;;2.90;1.73;;;25.20;75.90;;;;;;5138699;27;20511;-69
2022/07/03 02:57:00;;;;;;;4.35;1.80;;;25.00;75.90;;;;;;5137736;27;20050;-69
2022/07/03 02:59:35;;;;;;;3.22;1.83;;;25.20;79.00;;;;;;5135457;27;20043;-68
2022/07/03 03:02:30;;;;;;;3.90;1.95;;;25.10;74.60;;;;;;5154542;27;20043;-64
2022/07/03 03:05:02;;;;;;;3.42;1.90;;;25.10;78.70;;;;;;5129075;27;20104;-69
2022/07/03 03:07:42;;;;;;;4.18;2.10;;;25.10;76.10;;;;;;5103330;27;20055;-68
2022/07/03 03:10:08;;;;;;;3.55;1.90;;;25.00;75.60;;;;;;5154784;27;20050;-68
2022/07/03 03:12:36;;;;;;;5.57;1.80;;;25.10;75.60;;;;;;5116852;27;20035;-68
2022/07/03 03:15:04;;;;;;;4.32;2.00;;;25.20;75.60;;;;;;5154993;27;20042;-67
2022/07/03 03:17:43;;;;;;;3.55;1.80;;;25.20;75.80;;;;;;5156971;27;20038;-68
2022/07/03 03:20:09;;;;;;;4.50;1.77;;;25.10;78.70;;;;;;5135225;27;20051;-69
2022/07/03 03:23:18;;;;;;;3.50;2.10;;;25.10;75.80;;;;;;5103732;27;20104;-69
2022/07/03 03:25:44;;;;;;;4.45;2.05;;;24.90;74.70;;;;;;5072304;28;20040;-68
2022/07/03 03:28:10;;;;;;;4.03;1.83;;;25.10;75.90;;;;;;5072553;28;20045;-68
2022/07/03 03:30:36;;;;;;;3.80;1.90;;;25.10;75.70;;;;;;5035570;28;20140;-69
2022/07/03 03:33:03;;;;;;;6.32;2.53;;;25.10;75.80;;;;;;5039354;28;20056;-68
2022/07/03 03:35:28;;;;;;;4.13;1.98;;;25.10;79.10;;;;;;5028345;28;20139;-66
2022/07/03 03:37:54;;;;;;;3.50;2.00;;;24.80;78.60;;;;;;5071326;28;20136;-71
2022/07/03 03:40:20;;;;;;;5.07;1.95;;;25.10;75.70;;;;;;5055194;28;20056;-69
2022/07/03 03:42:46;;;;;;;4.00;1.95;;;24.90;75.50;;;;;;5037951;28;20049;-65
2022/07/03 03:45:11;;;;;;;4.43;2.72;;;25.10;75.50;;;;;;5071604;28;20045;-70
2022/07/03 03:47:37;;;;;;;6.53;2.28;;;25.00;75.80;;;;;;5071935;28;20067;-66
2022/07/03 03:50:03;;;;;;;9.05;2.95;;;24.90;75.60;;;;;;5071585;28;20112;-71
2022/07/03 03:52:29;;;;;;;7.57;2.95;;;25.10;79.10;;;;;;5033776;28;20060;-71
2022/07/03 03:54:55;;;;;;;6.45;2.40;;;25.00;76.00;;;;;;5071877;28;20079;-71
2022/07/03 03:57:22;;;;;;;4.93;2.50;;;25.00;75.90;;;;;;5053616;28;20041;-67
2022/07/03 03:59:48;;;;;;;4.65;2.38;;;24.90;76.30;;;;;;5072505;28;20044;-71
2022/07/03 04:02:14;;;;;;;5.43;2.70;;;25.00;75.90;;;;;;5108039;27;20051;-71
2022/07/03 04:04:40;;;;;;;6.88;3.10;;;25.00;79.40;;;;;;5156812;27;20384;-71
2022/07/03 04:07:05;;;;;;;6.70;3.78;;;25.00;76.30;;;;;;5155908;27;20046;-68
2022/07/03 04:09:31;;;;;;;6.65;3.55;;;25.00;75.90;;;;;;5137897;27;20035;-71
2022/07/03 04:11:57;;;;;;;7.85;3.33;;;24.70;78.50;;;;;;5153725;27;20066;-71
2022/07/03 04:14:23;;;;;;;7.22;2.95;;;24.70;79.80;;;;;;5114409;27;20038;-69
2022/07/03 04:16:49;;;;;;;5.13;2.72;;;24.90;80.10;;;;;;5156570;27;20075;-67
2022/07/03 04:19:15;;;;;;;8.15;2.90;;;24.70;76.60;;;;;;5156053;27;20086;-70
2022/07/03 04:21:40;;;;;;;5.45;3.03;;;24.80;80.00;;;;;;5137699;27;20060;-70
2022/07/03 04:24:06;;;;;;;5.93;2.35;;;24.70;76.50;;;;;;5155627;27;20175;-68
2022/07/03 04:26:32;;;;;;;4.00;2.30;;;24.80;76.40;;;;;;5120810;27;20046;-69
2022/07/03 04:28:58;;;;;;;6.63;2.63;;;25.10;76.60;;;;;;5138035;27;20044;-69
2022/07/03 04:31:23;;;;;;;5.82;2.17;;;24.90;80.20;;;;;;5120543;27;20034;-70
2022/07/03 04:33:49;;;;;;;3.90;2.15;;;24.80;76.30;;;;;;5155823;27;20031;-69
2022/07/03 04:36:15;;;;;;;4.97;2.63;;;25.10;79.40;;;;;;5100211;27;20538;-68
2022/07/03 04:38:42;;;;;;;6.38;2.35;;;24.70;76.30;;;;;;5116875;27;20043;-68
2022/07/03 04:41:08;;;;;;;5.45;2.38;;;24.90;76.50;;;;;;5107990;27;20047;-69
2022/07/03 04:43:34;;;;;;;5.70;2.45;;;24.90;79.10;;;;;;5134943;27;20080;-69
2022/07/03 04:46:00;;;;;;;4.63;2.17;;;25.00;79.30;;;;;;5127379;27;20035;-69
2022/07/03 04:48:31;;;;;;;3.78;2.00;;;25.00;76.20;;;;;;5135282;27;20407;-68
2022/07/03 04:50:57;;;;;;;4.47;2.20;;;25.00;76.50;;;;;;5133583;27;20093;-66
2022/07/03 04:53:22;;;;;;;4.20;2.30;;;25.00;76.10;;;;;;5135228;27;20111;-69
2022/07/03 04:55:48;;;;;;;6.68;2.65;;;25.10;76.00;;;;;;5142031;27;20042;-69
2022/07/03 04:58:14;;;;;;;5.93;2.80;;;24.80;76.00;;;;;;5155631;27;20039;-69
2022/07/03 05:00:40;;;;;;;4.50;2.33;;;25.00;78.90;;;;;;5137202;27;20042;-70
2022/07/03 05:03:06;;;;;;;4.32;2.20;;;25.00;76.10;;;;;;5119956;27;20123;-69
2022/07/03 05:05:32;;;;;;;5.32;2.30;;;25.10;75.90;;;;;;5155762;27;20407;-69
2022/07/03 05:07:58;;;;;;;5.55;2.20;;;25.10;76.00;;;;;;5136386;27;20068;-69
2022/07/03 05:10:24;;;;;;;5.18;2.40;;;25.10;75.90;;;;;;5136770;27;20058;-69
2022/07/03 05:12:50;;;;;;;3.88;2.10;;;25.10;78.80;;;;;;5155445;27;20035;-68
2022/07/03 05:15:15;;;;;;;4.90;2.13;;;25.30;75.90;;;;;;5155435;27;20042;-68
2022/07/03 05:17:41;;;;;;;4.10;2.00;;;25.10;75.70;;;;;;5136199;27;20034;-69
2022/07/03 05:20:29;;;;;;;5.65;3.10;;;25.40;75.80;;;;;;5154930;27;20403;-70
2022/07/03 05:22:55;;;;;;;4.65;2.58;;;25.10;75.10;;;;;;5136648;27;20051;-69
2022/07/03 05:25:21;;;;;;;4.70;2.33;;;25.30;75.90;;;;;;5136639;27;20049;-69
2022/07/03 05:27:47;;;;;;;5.07;2.40;;;25.30;75.60;;;;;;5155073;27;20125;-70
2022/07/03 05:30:13;;;;;;;7.55;2.65;;;25.60;75.80;;;;;;5136653;27;20119;-70
2022/07/03 05:32:39;;;;;;;4.30;2.25;;;25.60;75.60;;;;;;5154874;27;20038;-69
2022/07/03 05:35:05;;;;;;;5.68;2.30;;;25.60;74.90;;;;;;5155885;27;20038;-69
2022/07/03 05:37:31;;;;;;;5.13;2.00;;;25.70;74.70;;;;;;5136822;27;20049;-68
2022/07/03 05:39:57;;;;;;;4.60;2.28;;;25.90;74.80;;;;;;5154782;27;20395;-69
2022/07/03 05:42:23;;;;;;;4.80;2.28;;;25.90;74.80;;;;;;5119655;27;20396;-68
2022/07/03 05:44:49;;;;;;;4.95;2.28;;;26.10;74.70;;;;;;5136359;27;20495;-66
2022/07/03 05:47:14;;;;;;;5.50;2.42;;;26.10;73.90;;;;;;5155245;27;20121;-69
2022/07/03 05:49:40;;;;;;;3.92;2.25;;;26.20;74.20;;;;;;5154179;27;20125;-69
2022/07/03 05:52:06;;;;;;;4.80;2.00;;;26.00;74.00;;;;;;5154869;27;20046;-69
2022/07/03 05:54:32;;;;;;;5.28;2.10;;;26.40;73.80;;;;;;5155182;27;20042;-70
2022/07/03 05:56:58;;;;;;;4.90;2.00;;;26.60;74.20;;;;;;5155436;27;20058;-70
2022/07/03 05:59:23;;;;;;;4.22;2.00;;;26.50;73.90;;;;;;5135851;27;20104;-70
2022/07/03 06:01:49;;;;;;;4.28;2.03;;;26.60;73.90;;;;;;5157926;27;20039;-69
2022/07/03 06:04:16;;;;;;;5.10;2.05;;;26.80;73.50;;;;;;5140546;27;20062;-70
2022/07/03 06:06:41;;;;;;;3.45;1.90;;;27.00;73.60;;;;;;5140178;27;20089;-69
2022/07/03 06:09:07;;;;;;;5.80;2.22;;;26.90;73.10;;;;;;5121088;27;20071;-70
2022/07/03 06:11:33;;;;;;;3.13;1.80;;;27.10;73.00;;;;;;5135192;27;20043;-70
2022/07/03 06:13:59;;;;;;;3.53;1.73;;;27.30;72.70;;;;;;5140334;27;20085;-70
2022/07/03 06:16:24;;;;;;;4.18;1.88;;;27.20;72.60;;;;;;5158674;27;20388;-68
2022/07/03 06:18:50;;;;;;;3.95;1.90;;;27.20;71.80;;;;;;5140120;27;20045;-70
2022/07/03 06:21:16;;;;;;;4.25;2.05;;;27.50;72.30;;;;;;5137603;27;20046;-67
2022/07/03 06:23:42;;;;;;;3.40;1.83;;;27.30;72.30;;;;;;5137640;27;20039;-70
2022/07/03 06:26:08;;;;;;;4.05;1.83;;;27.50;72.60;;;;;;5138064;27;20050;-70
2022/07/03 06:28:33;;;;;;;3.40;1.95;;;27.20;71.80;;;;;;5138365;27;20058;-70
2022/07/03 06:30:59;;;;;;;3.25;1.63;;;27.30;72.40;;;;;;5138700;27;20035;-70
2022/07/03 06:33:25;;;;;;;2.75;1.67;;;27.10;72.40;;;;;;5135299;27;20061;-69
2022/07/03 06:35:51;;;;;;;5.10;2.08;;;27.10;72.20;;;;;;5136643;27;20078;-67
2022/07/03 06:38:16;;;;;;;4.10;1.80;;;27.10;72.30;;;;;;5137466;27;20050;-69
2022/07/03 06:40:42;;;;;;;3.60;1.90;;;27.30;72.40;;;;;;5137671;27;20119;-69
2022/07/03 06:43:08;;;;;;;4.32;1.80;;;27.30;72.40;;;;;;5136281;27;20039;-70
2022/07/03 06:45:33;;;;;;;3.90;1.90;;;27.40;72.20;;;;;;5136482;27;20515;-70
2022/07/03 06:47:59;;;;;;;3.83;1.77;;;27.50;72.20;;;;;;5136990;27;20066;-70
2022/07/03 06:50:25;;;;;;;3.70;1.70;;;27.70;72.20;;;;;;5137446;27;20043;-66
2022/07/03 06:52:51;;;;;;;4.28;1.88;;;27.60;71.90;;;;;;5118629;27;20043;-69
2022/07/03 06:55:17;;;;;;;3.83;1.70;;;27.70;72.00;;;;;;5135908;27;20138;-69
2022/07/03 06:57:42;;;;;;;4.28;1.80;;;27.70;72.00;;;;;;5119048;27;20126;-69
2022/07/03 07:00:09;;;;;;;3.70;1.80;;;27.60;71.70;;;;;;5136136;27;20047;-70
2022/07/03 07:02:34;;;;;;;2.75;1.50;;;27.80;71.40;;;;;;5136365;27;20073;-70
2022/07/03 07:05:00;;;;;;;3.42;1.65;;;27.70;71.60;;;;;;5134882;27;20476;-63
2022/07/03 07:07:26;;;;;;;2.55;1.55;;;27.70;71.70;;;;;;5135983;27;20058;-67
2022/07/03 07:09:52;;;;;;;3.42;1.60;;;27.90;71.70;;;;;;5137117;27;20039;-70
2022/07/03 07:12:17;;;;;;;3.78;1.80;;;27.80;71.60;;;;;;5134789;27;20085;-70
2022/07/03 07:14:43;;;;;;;2.55;1.50;;;28.00;71.70;;;;;;5134889;27;20047;-70
2022/07/03 07:17:09;;;;;;;3.80;1.75;;;28.00;71.70;;;;;;5137076;27;20043;-70
2022/07/03 07:19:35;;;;;;;3.78;1.63;;;28.20;71.60;;;;;;5142511;27;20055;-70
2022/07/03 07:22:01;;;;;;;3.35;1.67;;;28.30;71.40;;;;;;5138746;27;20054;-69
2022/07/03 07:24:29;;;;;;;4.68;1.80;;;28.40;71.40;;;;;;5157355;27;20047;-70
2022/07/03 07:26:55;;;;;;;3.63;1.60;;;28.20;71.50;;;;;;5138340;27;20080;-70
2022/07/03 07:29:21;;;;;;;3.00;1.60;;;28.40;71.20;;;;;;5157335;27;20046;-67
2022/07/03 07:31:46;;;;;;;3.63;1.75;;;28.10;71.00;;;;;;5157325;27;20446;-69
2022/07/03 07:34:13;;;;;;;2.97;1.42;;;28.40;70.90;;;;;;5157493;27;20047;-70
2022/07/03 07:36:39;;;;;;;3.28;1.73;;;28.40;71.10;;;;;;5157041;27;20416;-67
2022/07/03 07:39:04;;;;;;;3.00;1.58;;;28.70;70.70;;;;;;5138741;27;20078;-70
2022/07/03 07:41:30;;;;;;;3.03;1.40;;;28.50;70.80;;;;;;5134486;27;20086;-70
2022/07/03 07:43:56;;;;;;;3.47;1.60;;;28.50;70.30;;;;;;5118243;27;20391;-68
2022/07/03 07:46:22;;;;;;;3.35;1.50;;;28.50;71.00;;;;;;5139654;27;20038;-69
2022/07/03 07:48:47;;;;;;;3.05;1.65;;;28.50;70.90;;;;;;5138183;27;20082;-70
2022/07/03 07:51:13;;;;;;;1.60;1.20;;;28.70;71.10;;;;;;5157026;27;20070;-69
2022/07/03 07:53:39;;;;;;;2.60;1.60;;;28.50;70.70;;;;;;5138558;27;20050;-70
2022/07/03 07:56:05;;;;;;;3.50;1.67;;;28.90;71.10;;;;;;5138177;27;20078;-69
2022/07/03 07:58:30;;;;;;;4.28;1.80;;;28.60;70.90;;;;;;5155816;27;20031;-70
2022/07/03 08:06:24;;;;;;;3.30;1.50;;;28.60;69.80;;;;;;5137837;27;20047;-66
2022/07/03 08:08:50;;;;;;;2.13;1.30;;;28.80;70.90;;;;;;5155915;27;20076;-70
2022/07/03 08:11:16;;;;;;;2.50;1.40;;;28.50;71.00;;;;;;5156673;27;20054;-68
2022/07/03 08:13:42;;;;;;;2.25;1.50;;;28.60;70.70;;;;;;5156269;27;20046;-66
2022/07/03 08:16:07;;;;;;;2.58;1.50;;;28.70;71.00;;;;;;5156645;27;20046;-70
2022/07/03 08:18:33;;;;;;;2.90;1.40;;;28.80;70.70;;;;;;5155754;27;20115;-70
2022/07/03 08:20:59;;;;;;;3.10;1.50;;;28.70;70.80;;;;;;5156004;27;20142;-70
2022/07/03 08:23:25;;;;;;;3.22;1.40;;;28.90;71.10;;;;;;5156045;27;20385;-70
2022/07/03 08:25:51;;;;;;;3.22;1.55;;;28.60;70.70;;;;;;5137588;27;20137;-68
2022/07/03 08:28:17;;;;;;;3.70;1.52;;;28.80;70.80;;;;;;5156381;27;20046;-69
2022/07/03 08:30:42;;;;;;;2.53;1.40;;;29.00;70.80;;;;;;5137143;27;20122;-70
2022/07/03 08:33:08;;;;;;;2.30;1.38;;;28.70;70.80;;;;;;5156327;27;20483;-71
2022/07/03 08:35:34;;;;;;;2.15;1.40;;;28.90;70.80;;;;;;5137755;27;20130;-69
2022/07/03 08:38:00;;;;;;;4.00;1.77;;;28.50;70.60;;;;;;5137601;27;20047;-69
2022/07/03 08:40:25;;;;;;;2.53;1.60;;;28.50;70.60;;;;;;5155108;27;20375;-70
2022/07/03 08:42:56;;;;;;;2.33;1.50;;;28.70;70.80;;;;;;5136928;27;20423;-68
2022/07/03 08:45:23;;;;;;;3.13;1.50;;;28.70;71.00;;;;;;5137662;27;20449;-69
2022/07/03 08:47:49;;;;;;;2.75;1.65;;;28.60;70.70;;;;;;5120483;27;20050;-71
2022/07/03 08:50:17;;;;;;;2.17;1.30;;;28.80;70.90;;;;;;5155797;27;20395;-69
2022/07/03 08:52:43;;;;;;;3.63;1.70;;;28.60;70.80;;;;;;5135327;27;20036;-70
2022/07/03 08:55:09;;;;;;;3.97;1.60;;;28.70;70.50;;;;;;5135405;27;20061;-70
2022/07/03 08:57:40;;;;;;;2.97;1.40;;;28.60;70.30;;;;;;5133876;27;20108;-71
2022/07/03 09:00:07;;;;;;;3.00;1.65;;;28.90;71.20;;;;;;5116485;27;20087;-68
2022/07/03 09:02:33;;;;;;;2.95;1.50;;;28.70;70.80;;;;;;5150349;27;20061;-71
2022/07/03 09:05:00;;;;;;;2.20;1.52;;;28.80;70.80;;;;;;5155723;27;20039;-71
2022/07/03 09:07:26;;;;;;;3.00;1.40;;;28.50;71.00;;;;;;5136871;27;20050;-71
2022/07/03 09:09:52;;;;;;;3.50;1.50;;;28.70;71.20;;;;;;5118502;27;20047;-71
2022/07/03 09:12:18;;;;;;;3.03;1.40;;;28.80;71.10;;;;;;5136528;27;20399;-71
2022/07/03 09:14:44;;;;;;;3.10;1.52;;;28.50;70.70;;;;;;5136876;27;20061;-71
2022/07/03 09:17:10;;;;;;;2.47;1.35;;;28.90;71.00;;;;;;5137186;27;20034;-71
2022/07/03 09:19:47;;;;;;;2.67;1.27;;;28.80;70.90;;;;;;5155241;27;20138;-69
2022/07/03 09:22:22;;;;;;;2.28;1.30;;;28.40;71.30;;;;;;5154769;27;20050;-70
2022/07/03 09:24:49;;;;;;;2.70;1.40;;;28.80;71.70;;;;;;5134775;27;20051;-71
2022/07/03 09:27:20;;;;;;;3.40;1.40;;;28.90;71.30;;;;;;5134465;27;20054;-71
2022/07/03 09:30:08;;;;;;;3.45;1.50;;;28.70;71.30;;;;;;5140863;27;20103;-71
2022/07/03 09:32:43;;;;;;;4.63;1.60;;;28.70;70.00;;;;;;5155408;27;20092;-71
2022/07/03 09:35:19;;;;;;;2.42;1.42;;;28.80;71.70;;;;;;5154423;27;20388;-71
2022/07/03 09:37:55;;;;;;;2.30;1.20;;;28.60;69.70;;;;;;5136580;27;20552;-71
2022/07/03 09:40:22;;;;;;;1.90;1.15;;;28.50;71.20;;;;;;5155301;27;20047;-70
2022/07/03 09:43:02;;;;;;;2.40;1.45;;;28.40;71.40;;;;;;5119294;27;20487;-70
2022/07/03 09:45:47;;;;;;;2.90;1.30;;;28.40;71.90;;;;;;5154485;27;20510;-71
2022/07/03 09:48:29;;;;;;;2.15;1.45;;;28.40;71.60;;;;;;5101965;28;20118;-71
2022/07/03 09:51:10;;;;;;;2.63;1.30;;;28.40;71.60;;;;;;5134082;28;20507;-71
2022/07/03 09:53:55;;;;;;;4.60;1.40;;;28.40;70.40;;;;;;5134478;28;20050;-71
2022/07/03 09:56:23;;;;;;;2.70;1.40;;;28.50;70.60;;;;;;5152086;27;20042;-70
2022/07/03 09:59:09;;;;;;;1.80;1.30;;;28.30;71.60;;;;;;5136685;27;20047;-71
2022/07/03 10:01:36;;;;;;;1.58;1.30;;;28.30;72.10;;;;;;5136578;27;20408;-70
2022/07/03 10:04:11;;;;;;;2.85;1.45;;;28.60;71.90;;;;;;5136389;27;20084;-71
2022/07/03 10:06:55;;;;;;;2.47;1.30;;;28.40;70.40;;;;;;5154206;27;20054;-70
2022/07/03 10:09:23;;;;;;;2.75;1.25;;;28.50;70.70;;;;;;5155039;27;20498;-70
2022/07/03 10:11:49;;;;;;;2.42;1.15;;;28.50;71.90;;;;;;5102420;27;20423;-71
2022/07/03 10:14:17;;;;;;;1.95;1.10;;;28.30;71.20;;;;;;5136126;27;20054;-71
2022/07/03 10:16:43;;;;;;;2.47;1.38;;;28.50;72.00;;;;;;5136074;27;20046;-70
2022/07/03 10:19:20;;;;;;;3.45;1.30;;;28.60;71.60;;;;;;5136352;27;20038;-70
2022/07/03 10:22:02;;;;;;;2.35;1.27;;;28.50;70.60;;;;;;5114622;28;20170;-70
2022/07/03 10:24:31;;;;;;;3.45;1.38;;;28.50;70.70;;;;;;5115769;28;20044;-70
2022/07/03 10:26:58;;;;;;;3.45;1.40;;;28.50;72.00;;;;;;5134137;28;20451;-70
2022/07/03 10:29:25;;;;;;;4.25;1.50;;;28.60;72.10;;;;;;5133820;28;20043;-68
2022/07/03 10:31:51;;;;;;;2.20;1.40;;;28.30;71.80;;;;;;5132078;27;20051;-70
2022/07/03 10:34:22;;;;;;;4.82;1.40;;;28.40;71.10;;;;;;5135977;27;20369;-70
2022/07/03 10:37:00;;;;;;;3.03;1.20;;;28.20;71.80;;;;;;5136255;27;20055;-69
2022/07/03 10:39:50;;;;;;;3.83;1.42;;;28.60;70.50;;;;;;5154601;27;20051;-67
2022/07/03 10:45:09;;;;;;;2.85;1.30;;;28.60;72.20;;;;;;5139083;27;20395;-64
2022/07/03 10:47:45;;;;;;;2.67;1.27;;;28.50;71.90;;;;;;5156321;27;20064;-71
2022/07/03 10:50:15;;;;;;;3.15;1.50;;;28.40;72.30;;;;;;5122297;27;20047;-70
2022/07/03 10:52:41;;;;;;;1.70;1.10;;;28.50;70.40;;;;;;5157759;27;20108;-70
2022/07/03 10:55:07;;;;;;;2.00;1.10;;;28.70;71.80;;;;;;5138845;27;20400;-70
2022/07/03 10:57:34;;;;;;;2.40;1.30;;;28.60;71.80;;;;;;5137530;27;20392;-70
2022/07/03 11:00:00;;;;;;;3.40;1.27;;;28.40;71.80;;;;;;5137448;27;20035;-71
2022/07/03 11:02:40;;;;;;;2.35;1.38;;;28.70;71.80;;;;;;5118717;27;20557;-70
2022/07/03 11:05:10;;;;;;;4.18;1.42;;;28.70;72.30;;;;;;5141734;27;20399;-70
2022/07/03 11:08:05;;;;;;;2.40;1.30;;;29.00;70.70;;;;;;5157756;27;20046;-67
2022/07/03 11:10:32;;;;;;;1.63;0.90;;;28.40;71.60;;;;;;5020537;28;20056;-66
2022/07/03 11:12:58;;;;;;;1.80;1.00;;;28.50;71.80;;;;;;5036927;28;20049;-69
2022/07/03 11:15:38;;;;;;;2.58;1.20;;;28.70;71.70;;;;;;5053218;28;20060;-69
2022/07/03 11:18:25;;;;;;;2.40;1.10;;;28.60;70.50;;;;;;5053110;28;20096;-69
2022/07/03 11:20:51;;;;;;;1.60;1.10;;;28.80;70.90;;;;;;5053392;28;20084;-70
2022/07/03 11:23:26;;;;;;;1.65;1.10;;;28.60;71.30;;;;;;5053464;28;20080;-68
2022/07/03 11:26:00;;;;;;;1.27;1.00;;;28.60;71.60;;;;;;5053406;28;20609;-68
2022/07/03 11:28:50;;;;;;;2.35;1.23;;;28.70;72.00;;;;;;5052424;28;20114;-68
2022/07/03 11:31:16;;;;;;;1.50;1.15;;;28.40;71.90;;;;;;5036433;28;20064;-70
2022/07/03 11:33:42;;;;;;;1.52;1.05;;;28.80;71.20;;;;;;5053302;28;20442;-69
2022/07/03 11:36:17;;;;;;;3.08;1.30;;;28.60;71.40;;;;;;5053252;28;20057;-70
2022/07/03 11:39:08;;;;;;;2.50;1.17;;;28.70;71.00;;;;;;5035888;28;20045;-71
2022/07/03 11:41:36;;;;;;;1.60;1.27;;;28.80;71.70;;;;;;5028960;28;20478;-70
2022/07/03 11:44:06;;;;;;;2.67;1.17;;;28.90;71.50;;;;;;5013398;28;20061;-71
2022/07/03 11:46:37;;;;;;;2.17;1.30;;;28.90;70.10;;;;;;5022822;28;20057;-70
2022/07/03 11:49:05;;;;;;;2.75;1.08;;;28.60;71.40;;;;;;5082005;28;20109;-69
2022/07/03 11:51:32;;;;;;;1.60;1.20;;;28.80;71.10;;;;;;5092921;28;20040;-70
2022/07/03 11:53:57;;;;;;;1.73;1.17;;;28.50;71.20;;;;;;5093085;28;20040;-69
2022/07/03 11:56:23;;;;;;;3.47;1.25;;;28.80;71.40;;;;;;5076357;28;20047;-69
2022/07/03 11:58:50;;;;;;;2.40;1.02;;;28.80;71.00;;;;;;5092072;28;20055;-68
2022/07/03 12:01:22;;;;;;;2.80;1.13;;;28.60;71.20;;;;;;5059751;28;20060;-69
2022/07/03 12:03:54;;;;;;;2.28;1.30;;;28.50;71.20;;;;;;5092739;28;20052;-69
2022/07/03 12:06:20;;;;;;;1.75;0.98;;;28.70;71.50;;;;;;5059415;28;20118;-70
2022/07/03 12:08:46;;;;;;;2.25;1.25;;;28.60;70.80;;;;;;5059230;28;20101;-68
2022/07/03 12:11:13;;;;;;;1.55;1.00;;;28.60;70.90;;;;;;5091799;28;20487;-69
2022/07/03 12:13:39;;;;;;;2.35;1.08;;;28.30;71.00;;;;;;5092564;28;20048;-70
2022/07/03 12:16:07;;;;;;;2.28;1.05;;;28.90;71.10;;;;;;5092595;28;20047;-67
2022/07/03 12:18:53;;;;;;;1.95;1.15;;;28.80;71.40;;;;;;5108670;27;20082;-70
2022/07/03 12:21:23;;;;;;;2.58;1.13;;;28.70;70.00;;;;;;5155990;27;20047;-71
2022/07/03 12:23:53;;;;;;;2.28;1.10;;;28.30;70.70;;;;;;5156230;27;20129;-70
2022/07/03 12:26:34;;;;;;;3.33;1.23;;;28.60;71.40;;;;;;5155948;27;20040;-70
2022/07/03 12:29:10;;;;;;;1.23;0.82;;;28.70;70.00;;;;;;5156208;27;20054;-70
2022/07/03 12:31:46;;;;;;;1.30;1.05;;;28.80;71.70;;;;;;5103643;27;20129;-70
2022/07/03 12:34:12;;;;;;;2.90;1.10;;;28.80;69.90;;;;;;5120446;27;20053;-70
2022/07/03 12:36:38;;;;;;;2.28;0.93;;;28.60;71.10;;;;;;5156123;27;20125;-68
2022/07/03 12:39:04;;;;;;;1.30;1.00;;;28.60;70.60;;;;;;5119428;27;20476;-67
2022/07/03 12:41:30;;;;;;;1.63;0.90;;;28.70;71.00;;;;;;5156059;27;20039;-70
2022/07/03 12:43:57;;;;;;;2.10;0.80;;;28.80;70.50;;;;;;5120676;27;20043;-70
2022/07/03 12:46:26;;;;;;;1.48;1.00;;;28.60;71.10;;;;;;5120658;27;20039;-70
2022/07/03 12:48:56;;;;;;;3.33;1.60;;;28.90;70.90;;;;;;5136979;27;20103;-70
2022/07/03 12:51:43;;;;;;;1.13;0.85;;;28.60;71.20;;;;;;5155900;27;20433;-70
2022/07/03 12:54:30;;;;;;;1.65;0.90;;;28.30;69.60;;;;;;5155507;27;20093;-67
2022/07/03 12:59:16;;;;;;;1.85;1.27;;;28.50;69.80;;;;;;5137099;27;20092;-69
2022/07/03 13:00:07;;;;;;;3.03;1.20;;;28.30;70.80;;;;;;5155574;27;20046;-68
2022/07/03 13:02:33;;;;;;;2.35;1.20;;;28.40;69.80;;;;;;5156163;27;20387;-70
2022/07/03 13:05:00;;;;;;;4.72;1.23;;;28.40;71.00;;;;;;5137085;27;20042;-70
2022/07/03 13:07:32;;;;;;;3.72;1.27;;;28.50;71.30;;;;;;5120256;27;20050;-69
2022/07/03 13:10:01;;;;;;;2.05;1.05;;;28.50;71.30;;;;;;5154303;27;20046;-70
2022/07/03 13:12:27;;;;;;;4.82;1.50;;;28.50;71.60;;;;;;5119383;27;20055;-70